sensor_id;sensor_type;location;lat;lon;timestamp;P1;durP1;ratioP1;P2;durP2;ratioP2
75408;SDS011;63979;55.644;37.734;2023-07-28T00:04:18;19.25;;;12.57;;
75408;SDS011;63979;55.644;37.734;2023-07-28T00:14:20;17.45;;;11.90;;
75408;SDS011;63979;55.644;37.734;2023-07-28T00:24:22;16.10;;;11.68;;
75408;SDS011;63979;55.644;37.734;2023-07-28T00:34:24;21.95;;;13.15;;
75408;SDS011;63979;55.644;37.734;2023-07-28T00:39:25;16.77;;;12.00;;
75408;SDS011;63979;55.644;37.734;2023-07-28T00:44:26;14.25;;;11.07;;
75408;SDS011;63979;55.644;37.734;2023-07-28T00:49:27;15.77;;;12.10;;
75408;SDS011;63979;55.644;37.734;2023-07-28T00:54:28;13.65;;;11.85;;
75408;SDS011;63979;55.644;37.734;2023-07-28T01:04:30;16.70;;;11.25;;
75408;SDS011;63979;55.644;37.734;2023-07-28T01:09:34;17.02;;;12.27;;
75408;SDS011;63979;55.644;37.734;2023-07-28T01:14:43;17.13;;;13.10;;
75408;SDS011;63979;55.644;37.734;2023-07-28T01:19:45;20.20;;;13.30;;
75408;SDS011;63979;55.644;37.734;2023-07-28T01:25:06;15.52;;;12.35;;
75408;SDS011;63979;55.644;37.734;2023-07-28T01:30:17;18.35;;;13.05;;
75408;SDS011;63979;55.644;37.734;2023-07-28T01:35:20;17.58;;;11.98;;
75408;SDS011;63979;55.644;37.734;2023-07-28T01:45:21;33.13;;;15.02;;
75408;SDS011;63979;55.644;37.734;2023-07-28T01:55:23;18.42;;;12.85;;
75408;SDS011;63979;55.644;37.734;2023-07-28T02:00:24;17.88;;;12.60;;
75408;SDS011;63979;55.644;37.734;2023-07-28T02:05:26;16.95;;;13.30;;
75408;SDS011;63979;55.644;37.734;2023-07-28T02:15:28;21.38;;;13.90;;
75408;SDS011;63979;55.644;37.734;2023-07-28T02:20:29;18.92;;;12.75;;
75408;SDS011;63979;55.644;37.734;2023-07-28T02:25:30;16.42;;;12.18;;
75408;SDS011;63979;55.644;37.734;2023-07-28T02:30:31;18.63;;;13.63;;
75408;SDS011;63979;55.644;37.734;2023-07-28T02:40:33;18.55;;;11.50;;
75408;SDS011;63979;55.644;37.734;2023-07-28T02:50:35;29.58;;;13.20;;
75408;SDS011;63979;55.644;37.734;2023-07-28T02:55:40;19.30;;;13.25;;
75408;SDS011;63979;55.644;37.734;2023-07-28T03:00:44;23.00;;;14.82;;
75408;SDS011;63979;55.644;37.734;2023-07-28T03:05:47;21.00;;;14.38;;
75408;SDS011;63979;55.644;37.734;2023-07-28T03:10:59;21.05;;;13.50;;
75408;SDS011;63979;55.644;37.734;2023-07-28T03:16:03;22.75;;;14.85;;
75408;SDS011;63979;55.644;37.734;2023-07-28T03:21:04;21.33;;;13.30;;
75408;SDS011;63979;55.644;37.734;2023-07-28T03:26:05;20.30;;;14.02;;
75408;SDS011;63979;55.644;37.734;2023-07-28T03:31:07;18.90;;;12.00;;
75408;SDS011;63979;55.644;37.734;2023-07-28T03:41:08;14.00;;;12.00;;
75408;SDS011;63979;55.644;37.734;2023-07-28T03:46:10;13.70;;;11.80;;
75408;SDS011;63979;55.644;37.734;2023-07-28T03:51:11;16.80;;;12.48;;
75408;SDS011;63979;55.644;37.734;2023-07-28T03:56:12;22.35;;;14.55;;
75408;SDS011;63979;55.644;37.734;2023-07-28T04:01:13;19.00;;;14.52;;
75408;SDS011;63979;55.644;37.734;2023-07-28T04:06:14;23.90;;;14.15;;
75408;SDS011;63979;55.644;37.734;2023-07-28T04:11:16;18.95;;;14.25;;
75408;SDS011;63979;55.644;37.734;2023-07-28T04:16:17;18.90;;;13.23;;
75408;SDS011;63979;55.644;37.734;2023-07-28T04:21:18;19.52;;;13.70;;
75408;SDS011;63979;55.644;37.734;2023-07-28T04:26:18;22.60;;;16.25;;
75408;SDS011;63979;55.644;37.734;2023-07-28T04:36:20;18.27;;;14.40;;
75408;SDS011;63979;55.644;37.734;2023-07-28T04:41:22;18.65;;;12.75;;
75408;SDS011;63979;55.644;37.734;2023-07-28T04:46:23;14.82;;;11.02;;
75408;SDS011;63979;55.644;37.734;2023-07-28T04:51:23;13.25;;;10.00;;
75408;SDS011;63979;55.644;37.734;2023-07-28T04:56:24;11.95;;;7.50;;
75408;SDS011;63979;55.644;37.734;2023-07-28T05:01:25;11.48;;;7.28;;
75408;SDS011;63979;55.644;37.734;2023-07-28T05:11:27;14.50;;;7.53;;
75408;SDS011;63979;55.644;37.734;2023-07-28T05:21:29;13.68;;;7.45;;
75408;SDS011;63979;55.644;37.734;2023-07-28T05:26:30;10.70;;;7.45;;
75408;SDS011;63979;55.644;37.734;2023-07-28T05:31:32;11.25;;;5.97;;
75408;SDS011;63979;55.644;37.734;2023-07-28T05:36:33;5.75;;;4.97;;
75408;SDS011;63979;55.644;37.734;2023-07-28T05:41:34;6.47;;;5.05;;
75408;SDS011;63979;55.644;37.734;2023-07-28T05:46:35;7.78;;;4.50;;
75408;SDS011;63979;55.644;37.734;2023-07-28T05:51:36;6.75;;;4.75;;
75408;SDS011;63979;55.644;37.734;2023-07-28T05:56:37;6.25;;;4.53;;
75408;SDS011;63979;55.644;37.734;2023-07-28T06:01:39;7.22;;;3.97;;
75408;SDS011;63979;55.644;37.734;2023-07-28T06:06:40;6.50;;;3.90;;
75408;SDS011;63979;55.644;37.734;2023-07-28T06:11:41;5.07;;;4.13;;
75408;SDS011;63979;55.644;37.734;2023-07-28T06:16:42;6.38;;;4.18;;
75408;SDS011;63979;55.644;37.734;2023-07-28T06:21:43;5.97;;;3.85;;
75408;SDS011;63979;55.644;37.734;2023-07-28T06:26:44;8.10;;;5.55;;
75408;SDS011;63979;55.644;37.734;2023-07-28T06:31:45;9.93;;;4.80;;
75408;SDS011;63979;55.644;37.734;2023-07-28T06:36:46;7.70;;;4.72;;
75408;SDS011;63979;55.644;37.734;2023-07-28T06:41:47;6.03;;;4.95;;
75408;SDS011;63979;55.644;37.734;2023-07-28T06:46:48;7.65;;;5.25;;
75408;SDS011;63979;55.644;37.734;2023-07-28T06:51:49;7.85;;;5.57;;
75408;SDS011;63979;55.644;37.734;2023-07-28T06:56:49;9.85;;;5.30;;
75408;SDS011;63979;55.644;37.734;2023-07-28T07:01:51;8.77;;;5.35;;
75408;SDS011;63979;55.644;37.734;2023-07-28T07:06:52;10.00;;;4.88;;
75408;SDS011;63979;55.644;37.734;2023-07-28T07:11:53;7.07;;;5.00;;
75408;SDS011;63979;55.644;37.734;2023-07-28T07:21:55;7.57;;;5.15;;
75408;SDS011;63979;55.644;37.734;2023-07-28T07:26:56;6.93;;;4.82;;
75408;SDS011;63979;55.644;37.734;2023-07-28T07:31:57;6.20;;;4.75;;
75408;SDS011;63979;55.644;37.734;2023-07-28T07:36:58;6.47;;;4.90;;
75408;SDS011;63979;55.644;37.734;2023-07-28T07:41:59;7.38;;;5.00;;
75408;SDS011;63979;55.644;37.734;2023-07-28T07:47:01;9.45;;;4.82;;
75408;SDS011;63979;55.644;37.734;2023-07-28T07:52:14;7.75;;;5.40;;
75408;SDS011;63979;55.644;37.734;2023-07-28T07:57:15;9.20;;;5.32;;
75408;SDS011;63979;55.644;37.734;2023-07-28T08:02:16;7.38;;;5.13;;
75408;SDS011;63979;55.644;37.734;2023-07-28T08:07:17;7.30;;;4.75;;
75408;SDS011;63979;55.644;37.734;2023-07-28T08:12:18;7.95;;;4.93;;
75408;SDS011;63979;55.644;37.734;2023-07-28T08:17:19;10.57;;;5.50;;
75408;SDS011;63979;55.644;37.734;2023-07-28T08:22:20;6.70;;;4.15;;
75408;SDS011;63979;55.644;37.734;2023-07-28T08:27:21;6.40;;;4.85;;
75408;SDS011;63979;55.644;37.734;2023-07-28T08:32:24;6.43;;;4.55;;
75408;SDS011;63979;55.644;37.734;2023-07-28T08:37:25;5.72;;;4.80;;
75408;SDS011;63979;55.644;37.734;2023-07-28T08:42:29;6.05;;;4.70;;
75408;SDS011;63979;55.644;37.734;2023-07-28T08:47:33;5.25;;;4.43;;
75408;SDS011;63979;55.644;37.734;2023-07-28T08:52:34;4.78;;;3.92;;
75408;SDS011;63979;55.644;37.734;2023-07-28T08:57:35;8.13;;;4.40;;
75408;SDS011;63979;55.644;37.734;2023-07-28T09:02:36;8.85;;;4.68;;
75408;SDS011;63979;55.644;37.734;2023-07-28T09:07:37;5.68;;;4.07;;
75408;SDS011;63979;55.644;37.734;2023-07-28T09:12:45;7.43;;;5.70;;
75408;SDS011;63979;55.644;37.734;2023-07-28T09:17:47;6.93;;;5.45;;
75408;SDS011;63979;55.644;37.734;2023-07-28T09:22:48;9.88;;;4.97;;
75408;SDS011;63979;55.644;37.734;2023-07-28T09:27:51;7.25;;;4.95;;
75408;SDS011;63979;55.644;37.734;2023-07-28T09:32:54;8.82;;;5.88;;
75408;SDS011;63979;55.644;37.734;2023-07-28T09:37:56;6.10;;;5.30;;
75408;SDS011;63979;55.644;37.734;2023-07-28T09:42:58;7.20;;;6.00;;
75408;SDS011;63979;55.644;37.734;2023-07-28T09:47:59;9.57;;;5.95;;
75408;SDS011;63979;55.644;37.734;2023-07-28T09:53:02;10.23;;;7.85;;
75408;SDS011;63979;55.644;37.734;2023-07-28T09:58:04;7.90;;;6.03;;
75408;SDS011;63979;55.644;37.734;2023-07-28T10:03:07;9.43;;;6.30;;
75408;SDS011;63979;55.644;37.734;2023-07-28T10:08:09;7.78;;;6.50;;
75408;SDS011;63979;55.644;37.734;2023-07-28T10:13:19;10.25;;;6.65;;
75408;SDS011;63979;55.644;37.734;2023-07-28T10:18:21;10.45;;;7.13;;
75408;SDS011;63979;55.644;37.734;2023-07-28T10:23:23;10.65;;;7.35;;
75408;SDS011;63979;55.644;37.734;2023-07-28T10:28:32;10.55;;;7.38;;
75408;SDS011;63979;55.644;37.734;2023-07-28T10:33:45;10.35;;;6.95;;
75408;SDS011;63979;55.644;37.734;2023-07-28T10:38:47;10.20;;;7.32;;
75408;SDS011;63979;55.644;37.734;2023-07-28T10:44:00;9.65;;;8.02;;
75408;SDS011;63979;55.644;37.734;2023-07-28T10:49:04;10.45;;;8.07;;
75408;SDS011;63979;55.644;37.734;2023-07-28T10:54:06;10.55;;;6.78;;
75408;SDS011;63979;55.644;37.734;2023-07-28T10:59:07;12.45;;;9.00;;
75408;SDS011;63979;55.644;37.734;2023-07-28T11:04:13;12.32;;;9.30;;
75408;SDS011;63979;55.644;37.734;2023-07-28T11:09:16;13.57;;;9.38;;
75408;SDS011;63979;55.644;37.734;2023-07-28T11:14:19;15.27;;;8.35;;
75408;SDS011;63979;55.644;37.734;2023-07-28T11:19:21;11.00;;;8.95;;
75408;SDS011;63979;55.644;37.734;2023-07-28T11:24:25;13.10;;;8.60;;
75408;SDS011;63979;55.644;37.734;2023-07-28T11:29:26;10.13;;;8.10;;
75408;SDS011;63979;55.644;37.734;2023-07-28T11:34:28;11.93;;;9.23;;
75408;SDS011;63979;55.644;37.734;2023-07-28T11:39:36;11.70;;;8.60;;
75408;SDS011;63979;55.644;37.734;2023-07-28T11:44:40;8.05;;;6.97;;
75408;SDS011;63979;55.644;37.734;2023-07-28T11:49:47;11.63;;;8.50;;
75408;SDS011;63979;55.644;37.734;2023-07-28T11:54:50;11.38;;;8.60;;
75408;SDS011;63979;55.644;37.734;2023-07-28T11:59:53;12.15;;;9.90;;
75408;SDS011;63979;55.644;37.734;2023-07-28T12:04:55;10.80;;;7.97;;
75408;SDS011;63979;55.644;37.734;2023-07-28T12:10:05;12.52;;;8.80;;
75408;SDS011;63979;55.644;37.734;2023-07-28T12:15:20;11.73;;;8.18;;
75408;SDS011;63979;55.644;37.734;2023-07-28T12:20:22;12.13;;;7.47;;
75408;SDS011;63979;55.644;37.734;2023-07-28T12:25:23;8.73;;;7.70;;
75408;SDS011;63979;55.644;37.734;2023-07-28T12:30:25;9.38;;;7.70;;
75408;SDS011;63979;55.644;37.734;2023-07-28T12:35:27;11.52;;;8.32;;
75408;SDS011;63979;55.644;37.734;2023-07-28T12:40:33;8.55;;;7.00;;
75408;SDS011;63979;55.644;37.734;2023-07-28T12:45:35;9.55;;;7.60;;
75408;SDS011;63979;55.644;37.734;2023-07-28T12:50:37;8.70;;;6.60;;
75408;SDS011;63979;55.644;37.734;2023-07-28T12:55:38;11.45;;;7.65;;
75408;SDS011;63979;55.644;37.734;2023-07-28T13:00:39;9.20;;;7.45;;
75408;SDS011;63979;55.644;37.734;2023-07-28T13:05:41;9.52;;;7.47;;
75408;SDS011;63979;55.644;37.734;2023-07-28T13:10:43;9.07;;;5.45;;
75408;SDS011;63979;55.644;37.734;2023-07-28T13:20:45;6.10;;;4.30;;
75408;SDS011;63979;55.644;37.734;2023-07-28T13:25:46;5.07;;;3.33;;
75408;SDS011;63979;55.644;37.734;2023-07-28T13:35:48;5.60;;;3.10;;
75408;SDS011;63979;55.644;37.734;2023-07-28T13:40:49;6.53;;;3.20;;
75408;SDS011;63979;55.644;37.734;2023-07-28T13:45:50;4.35;;;3.03;;
75408;SDS011;63979;55.644;37.734;2023-07-28T13:55:53;6.32;;;3.00;;
75408;SDS011;63979;55.644;37.734;2023-07-28T14:00:55;5.57;;;3.40;;
75408;SDS011;63979;55.644;37.734;2023-07-28T14:05:56;5.80;;;3.47;;
75408;SDS011;63979;55.644;37.734;2023-07-28T14:10:58;3.40;;;2.33;;
75408;SDS011;63979;55.644;37.734;2023-07-28T14:15:59;4.90;;;2.97;;
75408;SDS011;63979;55.644;37.734;2023-07-28T14:21:00;3.25;;;2.10;;
75408;SDS011;63979;55.644;37.734;2023-07-28T14:31:02;11.30;;;6.50;;
75408;SDS011;63979;55.644;37.734;2023-07-28T14:36:03;5.45;;;3.42;;
75408;SDS011;63979;55.644;37.734;2023-07-28T14:41:04;3.92;;;2.15;;
75408;SDS011;63979;55.644;37.734;2023-07-28T14:46:05;3.85;;;2.05;;
75408;SDS011;63979;55.644;37.734;2023-07-28T14:51:06;2.45;;;2.25;;
75408;SDS011;63979;55.644;37.734;2023-07-28T14:56:08;3.50;;;2.58;;
75408;SDS011;63979;55.644;37.734;2023-07-28T15:01:12;2.97;;;2.00;;
75408;SDS011;63979;55.644;37.734;2023-07-28T15:06:13;3.05;;;2.15;;
75408;SDS011;63979;55.644;37.734;2023-07-28T15:16:14;3.17;;;2.30;;
75408;SDS011;63979;55.644;37.734;2023-07-28T15:21:15;7.20;;;2.40;;
75408;SDS011;63979;55.644;37.734;2023-07-28T15:31:17;4.97;;;2.30;;
75408;SDS011;63979;55.644;37.734;2023-07-28T15:36:18;3.22;;;2.08;;
75408;SDS011;63979;55.644;37.734;2023-07-28T15:41:19;3.22;;;2.53;;
75408;SDS011;63979;55.644;37.734;2023-07-28T15:46:20;2.83;;;2.25;;
75408;SDS011;63979;55.644;37.734;2023-07-28T15:51:22;3.47;;;2.50;;
75408;SDS011;63979;55.644;37.734;2023-07-28T15:56:23;7.32;;;4.43;;
75408;SDS011;63979;55.644;37.734;2023-07-28T16:01:24;4.30;;;3.30;;
75408;SDS011;63979;55.644;37.734;2023-07-28T16:06:26;5.50;;;2.88;;
75408;SDS011;63979;55.644;37.734;2023-07-28T16:11:30;4.90;;;2.63;;
75408;SDS011;63979;55.644;37.734;2023-07-28T16:16:33;4.07;;;2.67;;
75408;SDS011;63979;55.644;37.734;2023-07-28T16:21:34;4.15;;;2.72;;
75408;SDS011;63979;55.644;37.734;2023-07-28T16:26:35;4.55;;;2.58;;
75408;SDS011;63979;55.644;37.734;2023-07-28T16:31:36;3.83;;;2.65;;
75408;SDS011;63979;55.644;37.734;2023-07-28T16:41:38;4.68;;;2.60;;
75408;SDS011;63979;55.644;37.734;2023-07-28T16:46:39;4.00;;;2.88;;
75408;SDS011;63979;55.644;37.734;2023-07-28T16:51:40;3.55;;;2.40;;
75408;SDS011;63979;55.644;37.734;2023-07-28T17:01:42;6.82;;;2.70;;
75408;SDS011;63979;55.644;37.734;2023-07-28T17:06:44;4.47;;;3.60;;
75408;SDS011;63979;55.644;37.734;2023-07-28T17:16:45;2.88;;;1.98;;
75408;SDS011;63979;55.644;37.734;2023-07-28T17:21:46;2.53;;;2.08;;
75408;SDS011;63979;55.644;37.734;2023-07-28T17:26:47;5.68;;;2.80;;
75408;SDS011;63979;55.644;37.734;2023-07-28T17:36:49;5.32;;;2.20;;
75408;SDS011;63979;55.644;37.734;2023-07-28T17:41:50;3.90;;;2.20;;
75408;SDS011;63979;55.644;37.734;2023-07-28T17:46:51;2.95;;;1.77;;
75408;SDS011;63979;55.644;37.734;2023-07-28T17:51:52;4.47;;;2.30;;
75408;SDS011;63979;55.644;37.734;2023-07-28T17:56:53;7.28;;;4.97;;
75408;SDS011;63979;55.644;37.734;2023-07-28T18:01:54;2.50;;;1.80;;
75408;SDS011;63979;55.644;37.734;2023-07-28T18:06:55;5.65;;;2.35;;
75408;SDS011;63979;55.644;37.734;2023-07-28T18:11:56;2.35;;;1.80;;
75408;SDS011;63979;55.644;37.734;2023-07-28T18:16:58;4.38;;;1.92;;
75408;SDS011;63979;55.644;37.734;2023-07-28T18:21:59;4.07;;;2.63;;
75408;SDS011;63979;55.644;37.734;2023-07-28T18:27:00;4.03;;;2.00;;
75408;SDS011;63979;55.644;37.734;2023-07-28T18:32:01;2.55;;;1.88;;
75408;SDS011;63979;55.644;37.734;2023-07-28T18:37:03;4.05;;;2.25;;
75408;SDS011;63979;55.644;37.734;2023-07-28T18:42:04;3.95;;;2.20;;
75408;SDS011;63979;55.644;37.734;2023-07-28T18:47:05;3.75;;;1.85;;
75408;SDS011;63979;55.644;37.734;2023-07-28T18:52:06;3.47;;;2.28;;
75408;SDS011;63979;55.644;37.734;2023-07-28T18:57:07;3.03;;;1.83;;
75408;SDS011;63979;55.644;37.734;2023-07-28T19:02:08;3.90;;;2.33;;
75408;SDS011;63979;55.644;37.734;2023-07-28T19:07:09;4.80;;;2.08;;
75408;SDS011;63979;55.644;37.734;2023-07-28T19:12:11;5.95;;;2.38;;
75408;SDS011;63979;55.644;37.734;2023-07-28T19:17:12;3.22;;;2.20;;
75408;SDS011;63979;55.644;37.734;2023-07-28T19:22:15;2.88;;;1.88;;
75408;SDS011;63979;55.644;37.734;2023-07-28T19:27:17;2.72;;;2.00;;
75408;SDS011;63979;55.644;37.734;2023-07-28T19:32:19;2.35;;;1.95;;
75408;SDS011;63979;55.644;37.734;2023-07-28T19:37:20;4.03;;;2.58;;
75408;SDS011;63979;55.644;37.734;2023-07-28T19:42:21;3.25;;;1.90;;
75408;SDS011;63979;55.644;37.734;2023-07-28T19:47:22;3.10;;;2.22;;
75408;SDS011;63979;55.644;37.734;2023-07-28T19:52:23;3.67;;;2.63;;
75408;SDS011;63979;55.644;37.734;2023-07-28T20:02:25;2.63;;;1.88;;
75408;SDS011;63979;55.644;37.734;2023-07-28T20:07:26;5.65;;;2.30;;
75408;SDS011;63979;55.644;37.734;2023-07-28T20:12:27;4.47;;;2.17;;
75408;SDS011;63979;55.644;37.734;2023-07-28T20:17:30;4.05;;;2.80;;
75408;SDS011;63979;55.644;37.734;2023-07-28T20:22:31;3.00;;;2.13;;
75408;SDS011;63979;55.644;37.734;2023-07-28T20:27:32;3.33;;;1.95;;
75408;SDS011;63979;55.644;37.734;2023-07-28T20:32:41;2.92;;;2.20;;
75408;SDS011;63979;55.644;37.734;2023-07-28T20:37:42;2.58;;;2.30;;
75408;SDS011;63979;55.644;37.734;2023-07-28T20:42:44;2.10;;;1.83;;
75408;SDS011;63979;55.644;37.734;2023-07-28T20:47:45;2.03;;;1.88;;
75408;SDS011;63979;55.644;37.734;2023-07-28T20:52:46;5.25;;;2.40;;
75408;SDS011;63979;55.644;37.734;2023-07-28T20:57:47;5.40;;;3.22;;
75408;SDS011;63979;55.644;37.734;2023-07-28T21:02:49;3.88;;;2.53;;
75408;SDS011;63979;55.644;37.734;2023-07-28T21:07:51;2.42;;;2.22;;
75408;SDS011;63979;55.644;37.734;2023-07-28T21:12:52;8.30;;;4.93;;
75408;SDS011;63979;55.644;37.734;2023-07-28T21:17:53;7.32;;;4.50;;
75408;SDS011;63979;55.644;37.734;2023-07-28T21:22:54;5.43;;;3.50;;
75408;SDS011;63979;55.644;37.734;2023-07-28T21:27:55;3.42;;;2.88;;
75408;SDS011;63979;55.644;37.734;2023-07-28T21:33:00;3.55;;;2.25;;
75408;SDS011;63979;55.644;37.734;2023-07-28T21:38:03;2.70;;;2.22;;
75408;SDS011;63979;55.644;37.734;2023-07-28T21:43:04;3.85;;;2.17;;
75408;SDS011;63979;55.644;37.734;2023-07-28T21:48:05;2.97;;;2.05;;
75408;SDS011;63979;55.644;37.734;2023-07-28T21:53:06;4.10;;;2.78;;
75408;SDS011;63979;55.644;37.734;2023-07-28T21:58:07;3.22;;;2.10;;
75408;SDS011;63979;55.644;37.734;2023-07-28T22:03:08;3.90;;;1.90;;
75408;SDS011;63979;55.644;37.734;2023-07-28T22:08:09;2.40;;;2.20;;
75408;SDS011;63979;55.644;37.734;2023-07-28T22:13:12;6.72;;;2.30;;
75408;SDS011;63979;55.644;37.734;2023-07-28T22:18:13;2.28;;;1.90;;
75408;SDS011;63979;55.644;37.734;2023-07-28T22:23:14;3.08;;;2.40;;
75408;SDS011;63979;55.644;37.734;2023-07-28T22:28:15;2.88;;;2.50;;
75408;SDS011;63979;55.644;37.734;2023-07-28T22:33:16;3.97;;;2.75;;
75408;SDS011;63979;55.644;37.734;2023-07-28T22:38:17;3.25;;;2.33;;
75408;SDS011;63979;55.644;37.734;2023-07-28T22:43:18;4.03;;;2.55;;
75408;SDS011;63979;55.644;37.734;2023-07-28T22:48:19;4.07;;;2.83;;
75408;SDS011;63979;55.644;37.734;2023-07-28T22:53:20;2.75;;;2.50;;
75408;SDS011;63979;55.644;37.734;2023-07-28T22:58:21;3.92;;;2.42;;
75408;SDS011;63979;55.644;37.734;2023-07-28T23:03:22;2.88;;;2.22;;
75408;SDS011;63979;55.644;37.734;2023-07-28T23:08:23;4.97;;;2.38;;
75408;SDS011;63979;55.644;37.734;2023-07-28T23:13:25;4.03;;;1.88;;
75408;SDS011;63979;55.644;37.734;2023-07-28T23:18:26;3.38;;;2.63;;
75408;SDS011;63979;55.644;37.734;2023-07-28T23:23:27;3.72;;;2.75;;
75408;SDS011;63979;55.644;37.734;2023-07-28T23:28:28;3.95;;;2.55;;
75408;SDS011;63979;55.644;37.734;2023-07-28T23:33:29;2.90;;;2.50;;
75408;SDS011;63979;55.644;37.734;2023-07-28T23:38:31;2.67;;;2.33;;
75408;SDS011;63979;55.644;37.734;2023-07-28T23:43:33;3.15;;;2.63;;
75408;SDS011;63979;55.644;37.734;2023-07-28T23:48:34;3.10;;;2.13;;
75408;SDS011;63979;55.644;37.734;2023-07-28T23:53:35;3.65;;;2.40;;
75408;SDS011;63979;55.644;37.734;2023-07-28T23:58:37;2.30;;;2.10;;
